createdAt,value
2018-05-06T00:00:52.292Z,90.90
2018-05-06T00:03:20.611Z,91.40
2018-05-06T00:05:48.156Z,91.40
2018-05-06T00:08:15.704Z,91.60
2018-05-06T00:10:43.248Z,91.40
2018-05-06T00:13:10.824Z,93.10
2018-05-06T00:15:38.629Z,93.00
2018-05-06T00:18:06.176Z,92.90
2018-05-06T00:20:34.495Z,93.20
2018-05-06T00:23:02.052Z,93.20
2018-05-06T00:25:29.623Z,93.80
2018-05-06T00:27:57.172Z,93.80
2018-05-06T00:30:25.486Z,94.20
2018-05-06T00:32:53.036Z,94.20
2018-05-06T00:35:20.584Z,93.80
2018-05-06T00:37:48.164Z,92.90
2018-05-06T00:40:15.718Z,92.40
2018-05-06T00:42:43.264Z,92.80
2018-05-06T00:45:10.812Z,92.50
2018-05-06T00:47:39.125Z,93.40
2018-05-06T00:50:06.708Z,93.40
2018-05-06T00:52:34.275Z,92.50
2018-05-06T00:55:01.827Z,94.00
2018-05-06T00:57:29.373Z,93.30
2018-05-06T00:59:56.916Z,93.40
2018-05-06T01:02:24.477Z,94.70
2018-05-06T01:04:52.024Z,95.40
2018-05-06T01:07:19.576Z,94.70
2018-05-06T01:09:47.130Z,94.80
2018-05-06T01:12:14.684Z,94.50
2018-05-06T01:14:42.233Z,94.70
2018-05-06T01:17:09.779Z,94.70
2018-05-06T01:19:37.352Z,94.40
2018-05-06T01:22:04.904Z,94.30
2018-05-06T01:24:32.449Z,93.80
2018-05-06T01:26:59.995Z,93.50
2018-05-06T01:29:28.309Z,94.10
2018-05-06T01:31:55.880Z,94.00
2018-05-06T01:34:23.440Z,93.50
2018-05-06T01:36:50.996Z,93.00
2018-05-06T01:39:18.541Z,92.50
2018-05-06T01:41:46.089Z,92.60
2018-05-06T01:44:13.662Z,92.90
2018-05-06T01:46:41.226Z,93.70
2018-05-06T01:49:08.784Z,92.30
2018-05-06T01:51:36.331Z,94.10
2018-05-06T01:54:03.876Z,91.80
2018-05-06T01:56:31.449Z,92.60
2018-05-06T01:58:59.002Z,93.80
2018-05-06T02:01:26.548Z,93.30
2018-05-06T02:03:54.097Z,93.70
2018-05-06T02:06:21.646Z,93.10
2018-05-06T02:08:49.212Z,93.60
2018-05-06T02:11:16.761Z,94.00
2018-05-06T02:13:44.386Z,95.00
2018-05-06T02:16:11.879Z,93.70
2018-05-06T02:18:40.192Z,94.40
2018-05-06T02:21:07.773Z,94.30
2018-05-06T02:23:35.324Z,95.50
2018-05-06T02:26:02.875Z,97.00
2018-05-06T02:28:30.423Z,97.50
2018-05-06T02:30:57.973Z,97.90
2018-05-06T02:33:25.544Z,97.70
2018-05-06T02:35:53.086Z,97.80
2018-05-06T02:38:20.634Z,98.30
2018-05-06T02:40:48.956Z,98.20
2018-05-06T02:43:16.503Z,98.20
2018-05-06T02:45:44.088Z,98.30
2018-05-06T02:48:11.644Z,98.20
2018-05-06T02:50:39.192Z,98.20
2018-05-06T02:53:06.742Z,98.20
2018-05-06T02:55:34.293Z,98.20
2018-05-06T02:58:01.864Z,98.40
2018-05-06T03:00:29.411Z,98.10
2018-05-06T03:02:56.955Z,98.10
2018-05-06T03:05:24.509Z,98.10
2018-05-06T03:07:52.061Z,98.00
2018-05-06T03:10:19.624Z,97.80
2018-05-06T03:12:47.176Z,97.70
2018-05-06T03:15:14.719Z,97.50
2018-05-06T03:17:42.268Z,97.50
2018-05-06T03:20:09.816Z,97.40
2018-05-06T03:22:37.388Z,97.40
2018-05-06T03:25:04.933Z,97.20
2018-05-06T03:27:32.480Z,97.30
2018-05-06T03:30:00.025Z,97.20
2018-05-06T03:32:27.569Z,97.00
2018-05-06T03:34:55.140Z,97.10
2018-05-06T03:37:22.684Z,97.10
2018-05-06T03:39:50.228Z,97.10
2018-05-06T03:42:17.784Z,97.10
2018-05-06T03:44:45.324Z,97.00
2018-05-06T03:47:12.901Z,97.00
2018-05-06T03:49:40.456Z,96.90
2018-05-06T03:52:08.004Z,96.80
2018-05-06T03:54:35.553Z,96.60
2018-05-06T03:57:14.692Z,96.50
2018-05-06T03:59:53.944Z,96.40
2018-05-06T04:05:20.684Z,95.90
2018-05-06T04:07:48.236Z,95.90
2018-05-06T04:10:15.804Z,95.70
2018-05-06T04:12:44.115Z,95.20
2018-05-06T04:15:11.669Z,94.80
2018-05-06T04:17:39.220Z,94.30
2018-05-06T04:20:06.777Z,94.80
2018-05-06T04:22:34.376Z,94.40
2018-05-06T04:25:01.927Z,94.10
2018-05-06T04:27:29.477Z,94.00
2018-05-06T04:29:57.798Z,93.90
2018-05-06T04:32:25.347Z,93.90
2018-05-06T04:34:52.929Z,94.00
2018-05-06T04:37:20.479Z,94.00
2018-05-06T04:39:48.026Z,94.10
2018-05-06T04:42:15.580Z,93.10
2018-05-06T04:44:43.142Z,92.90
2018-05-06T04:47:10.717Z,93.10
2018-05-06T04:49:38.267Z,92.60
2018-05-06T04:52:05.824Z,92.10
2018-05-06T04:54:33.372Z,92.00
2018-05-06T04:57:00.925Z,91.60
2018-05-06T04:59:28.510Z,91.30
2018-05-06T05:01:56.068Z,91.30
2018-05-06T05:04:23.616Z,91.00
2018-05-06T05:06:51.168Z,90.80
2018-05-06T05:09:18.716Z,90.70
2018-05-06T05:11:46.292Z,90.40
2018-05-06T05:14:13.848Z,90.10
2018-05-06T05:16:41.404Z,90.00
2018-05-06T05:19:08.952Z,89.90
2018-05-06T05:21:36.508Z,89.80
2018-05-06T05:24:04.870Z,89.60
2018-05-06T05:26:32.420Z,89.40
2018-05-06T05:28:59.972Z,88.00
2018-05-06T05:31:27.524Z,88.40
2018-05-06T05:33:55.843Z,88.30
2018-05-06T05:36:23.424Z,88.30
2018-05-06T05:38:50.978Z,88.30
2018-05-06T05:41:18.536Z,88.50
2018-05-06T05:43:46.083Z,87.90
2018-05-06T05:46:13.633Z,88.60
2018-05-06T05:48:41.212Z,87.80
2018-05-06T05:51:08.772Z,87.30
2018-05-06T05:53:36.332Z,87.80
2018-05-06T05:56:03.880Z,86.50
2018-05-06T05:58:31.440Z,86.40
2018-05-06T06:00:59.017Z,86.20
2018-05-06T06:03:26.600Z,85.40
2018-05-06T06:05:54.148Z,85.10
2018-05-06T06:08:21.708Z,83.90
2018-05-06T06:10:49.276Z,81.90
2018-05-06T06:13:16.869Z,80.60
2018-05-06T06:15:44.422Z,80.50
2018-05-06T06:18:12.168Z,78.80
2018-05-06T06:20:39.720Z,76.80
2018-05-06T06:23:07.272Z,77.70
2018-05-06T06:25:34.844Z,75.10
2018-05-06T06:28:02.395Z,76.10
2018-05-06T06:30:29.948Z,76.40
2018-05-06T06:32:57.524Z,75.90
2018-05-06T06:35:25.083Z,74.40
2018-05-06T06:37:52.664Z,74.30
2018-05-06T06:40:20.231Z,73.90
2018-05-06T06:42:47.780Z,72.60
2018-05-06T06:45:15.332Z,72.00
2018-05-06T06:47:42.884Z,74.00
2018-05-06T06:50:10.466Z,72.80
2018-05-06T06:52:38.018Z,74.00
2018-05-06T06:55:05.564Z,73.40
2018-05-06T06:57:33.120Z,71.10
2018-05-06T07:00:00.674Z,70.80
2018-05-06T07:02:28.260Z,69.80
2018-05-06T07:04:55.814Z,70.20
2018-05-06T07:07:23.374Z,69.40
2018-05-06T07:09:50.927Z,69.60
2018-05-06T07:12:18.480Z,69.00
2018-05-06T07:14:46.063Z,70.00
2018-05-06T07:17:13.621Z,69.40
2018-05-06T07:19:41.948Z,70.20
2018-05-06T07:22:09.504Z,70.00
2018-05-06T07:24:37.067Z,70.80
2018-05-06T07:27:05.412Z,69.30
2018-05-06T07:29:32.959Z,68.90
2018-05-06T07:32:00.517Z,69.50
2018-05-06T07:34:28.836Z,68.30
2018-05-06T07:36:56.386Z,68.30
2018-05-06T07:39:23.969Z,67.50
2018-05-06T07:41:51.521Z,66.90
2018-05-06T07:44:19.076Z,66.70
2018-05-06T07:46:46.625Z,66.80
2018-05-06T07:49:14.180Z,65.20
2018-05-06T07:51:41.762Z,64.40
2018-05-06T07:54:09.312Z,66.40
2018-05-06T07:56:36.869Z,67.50
2018-05-06T07:59:04.428Z,67.30
2018-05-06T08:01:31.990Z,68.20
2018-05-06T08:04:00.341Z,67.80
2018-05-06T08:06:27.900Z,67.70
2018-05-06T08:08:55.452Z,68.50
2018-05-06T08:11:24.319Z,68.10
2018-05-06T08:13:52.732Z,68.20
2018-05-06T08:16:20.315Z,67.20
2018-05-06T08:18:47.877Z,66.10
2018-05-06T08:21:15.431Z,65.50
2018-05-06T08:23:42.984Z,65.30
2018-05-06T08:26:10.536Z,65.40
2018-05-06T08:28:38.112Z,63.80
2018-05-06T08:31:05.712Z,65.10
2018-05-06T08:33:33.240Z,63.90
2018-05-06T08:36:00.792Z,64.30
2018-05-06T08:38:28.354Z,62.20
2018-05-06T08:40:56.708Z,61.80
2018-05-06T08:43:24.260Z,61.80
2018-05-06T08:45:51.893Z,62.70
2018-05-06T08:48:19.413Z,61.80
2018-05-06T08:50:46.972Z,63.60
2018-05-06T08:53:14.552Z,62.50
2018-05-06T08:55:42.105Z,61.00
2018-05-06T08:58:09.682Z,61.00
2018-05-06T09:00:37.235Z,59.00
2018-05-06T09:03:04.798Z,60.00
2018-05-06T09:05:32.377Z,59.90
2018-05-06T09:07:59.936Z,60.20
2018-05-06T09:10:27.523Z,59.80
2018-05-06T09:12:55.071Z,61.10
2018-05-06T09:15:22.639Z,60.50
2018-05-06T09:17:50.212Z,62.10
2018-05-06T09:20:17.768Z,61.20
2018-05-06T09:22:45.402Z,61.60
2018-05-06T09:25:12.959Z,59.90
2018-05-06T09:27:40.516Z,58.80
2018-05-06T09:30:08.088Z,59.50
2018-05-06T09:32:35.641Z,58.90
2018-05-06T09:35:03.209Z,59.80
2018-05-06T09:37:30.779Z,59.00
2018-05-06T09:39:58.337Z,59.00
2018-05-06T09:42:26.676Z,59.20
2018-05-06T09:44:54.232Z,59.20
2018-05-06T09:47:21.793Z,60.00
2018-05-06T09:49:49.343Z,60.60
2018-05-06T09:52:16.896Z,60.10
2018-05-06T09:54:44.464Z,60.60
2018-05-06T09:57:12.028Z,59.80
2018-05-06T09:59:39.576Z,61.10
2018-05-06T10:02:07.210Z,59.40
2018-05-06T10:04:34.708Z,57.70
2018-05-06T10:07:02.261Z,58.10
2018-05-06T10:09:29.816Z,56.60
2018-05-06T10:11:57.372Z,57.80
2018-05-06T10:14:24.923Z,58.30
2018-05-06T10:16:52.496Z,59.10
2018-05-06T10:19:20.048Z,59.10
2018-05-06T10:21:47.604Z,58.10
2018-05-06T10:24:15.155Z,56.40
2018-05-06T10:26:43.476Z,57.10
2018-05-06T10:29:11.056Z,57.20
2018-05-06T10:31:38.612Z,56.70
2018-05-06T10:34:06.169Z,55.60
2018-05-06T10:36:33.720Z,57.30
2018-05-06T10:39:01.272Z,56.60
2018-05-06T10:41:28.840Z,55.10
2018-05-06T10:43:56.454Z,54.50
2018-05-06T10:46:23.977Z,54.90
2018-05-06T10:48:51.533Z,56.40
2018-05-06T10:51:19.111Z,55.00
2018-05-06T10:53:46.726Z,54.30
2018-05-06T10:56:14.276Z,56.20
2018-05-06T10:58:41.829Z,57.30
2018-05-06T11:01:10.148Z,57.30
2018-05-06T11:03:37.701Z,57.30
2018-05-06T11:06:05.275Z,55.30
2018-05-06T11:08:32.851Z,55.00
2018-05-06T11:11:00.403Z,56.60
2018-05-06T11:13:27.960Z,55.50
2018-05-06T11:15:55.513Z,55.80
2018-05-06T11:18:23.084Z,56.50
2018-05-06T11:20:50.675Z,56.30
2018-05-06T11:23:19.014Z,56.20
2018-05-06T11:25:46.573Z,56.10
2018-05-06T11:28:14.132Z,57.40
2018-05-06T11:30:41.708Z,57.10
2018-05-06T11:33:10.032Z,57.10
2018-05-06T11:35:37.591Z,57.10
2018-05-06T11:38:05.149Z,57.40
2018-05-06T11:40:32.696Z,57.80
2018-05-06T11:43:00.272Z,57.10
2018-05-06T11:45:27.830Z,57.60
2018-05-06T11:47:55.384Z,57.00
2018-05-06T11:50:22.933Z,56.60
2018-05-06T11:52:50.481Z,57.20
2018-05-06T11:55:18.057Z,57.80
2018-05-06T11:57:45.614Z,56.50
2018-05-06T12:00:13.168Z,56.80
2018-05-06T12:02:40.722Z,56.50
2018-05-06T12:05:08.304Z,57.40
2018-05-06T12:07:35.876Z,56.00
2018-05-06T12:10:03.471Z,56.10
2018-05-06T12:12:31.092Z,57.30
2018-05-06T12:15:00.173Z,56.80
2018-05-06T12:17:27.754Z,56.80
2018-05-06T12:19:55.304Z,55.70
2018-05-06T12:22:22.861Z,55.80
2018-05-06T12:24:50.416Z,55.60
2018-05-06T12:27:17.967Z,55.50
2018-05-06T12:29:45.536Z,55.80
2018-05-06T12:32:13.120Z,56.60
2018-05-06T12:34:40.671Z,55.30
2018-05-06T12:37:08.228Z,55.50
2018-05-06T12:39:36.573Z,54.80
2018-05-06T12:42:04.148Z,55.10
2018-05-06T12:44:31.704Z,55.60
2018-05-06T12:46:59.266Z,54.90
2018-05-06T12:49:26.890Z,55.80
2018-05-06T12:51:54.416Z,55.50
2018-05-06T12:54:21.992Z,55.70
2018-05-06T12:56:49.544Z,56.00
2018-05-06T12:59:17.109Z,55.90
2018-05-06T13:01:44.659Z,55.10
2018-05-06T13:04:12.212Z,55.20
2018-05-06T13:06:39.804Z,55.20
2018-05-06T13:09:07.360Z,55.60
2018-05-06T13:11:34.912Z,54.30
2018-05-06T13:14:02.468Z,54.40
2018-05-06T13:16:30.017Z,55.30
2018-05-06T13:18:57.596Z,54.20
2018-05-06T13:21:25.148Z,55.30
2018-05-06T13:23:52.700Z,54.80
2018-05-06T13:26:20.248Z,55.20
2018-05-06T13:28:47.799Z,55.10
2018-05-06T13:31:15.380Z,55.40
2018-05-06T13:33:42.932Z,55.20
2018-05-06T13:36:10.487Z,55.30
2018-05-06T13:38:38.052Z,54.80
2018-05-06T13:41:05.605Z,55.00
2018-05-06T13:43:33.188Z,55.30
2018-05-06T13:46:00.812Z,55.50
2018-05-06T13:48:28.360Z,55.20
2018-05-06T13:50:55.916Z,55.00
2018-05-06T13:53:23.483Z,54.40
2018-05-06T13:55:51.066Z,54.70
2018-05-06T13:58:18.638Z,54.50
2018-05-06T14:00:46.193Z,54.90
2018-05-06T14:03:13.754Z,55.10
2018-05-06T14:05:41.328Z,54.30
2018-05-06T14:08:08.900Z,54.70
2018-05-06T14:10:37.543Z,55.60
2018-05-06T14:13:05.292Z,55.00
2018-05-06T14:15:32.849Z,55.40
2018-05-06T14:18:00.968Z,55.80
2018-05-06T14:20:29.712Z,55.50
2018-05-06T14:22:57.280Z,55.40
2018-05-06T14:25:24.838Z,55.80
2018-05-06T14:27:52.697Z,55.70
2018-05-06T14:30:20.316Z,55.80
2018-05-06T14:32:47.908Z,56.00
2018-05-06T14:35:15.476Z,56.70
2018-05-06T14:37:43.029Z,55.60
2018-05-06T14:40:10.582Z,56.30
2018-05-06T14:42:38.142Z,56.30
2018-05-06T14:45:05.729Z,56.20
2018-05-06T14:47:45.241Z,56.00
2018-05-06T14:50:12.825Z,55.50
2018-05-06T14:52:40.376Z,55.00
2018-05-06T14:55:09.436Z,54.70
2018-05-06T14:57:36.999Z,55.10
2018-05-06T15:00:04.553Z,55.10
2018-05-06T15:02:32.148Z,55.20
2018-05-06T15:04:59.701Z,55.40
2018-05-06T15:07:27.256Z,54.80
2018-05-06T15:09:55.572Z,54.60
2018-05-06T15:12:23.897Z,53.70
2018-05-06T15:14:51.472Z,53.70
2018-05-06T15:17:19.044Z,54.60
2018-05-06T15:19:47.376Z,55.40
2018-05-06T15:22:14.930Z,55.30
2018-05-06T15:24:42.491Z,54.30
2018-05-06T15:27:10.153Z,55.40
2018-05-06T15:29:37.711Z,54.40
2018-05-06T15:32:05.276Z,54.60
2018-05-06T15:34:32.833Z,55.30
2018-05-06T15:37:00.388Z,55.30
2018-05-06T15:39:27.968Z,55.00
2018-05-06T15:41:55.524Z,55.60
2018-05-06T15:44:23.076Z,55.20
2018-05-06T15:46:50.627Z,55.70
2018-05-06T15:49:18.176Z,55.00
2018-05-06T15:51:45.759Z,54.80
2018-05-06T15:54:13.313Z,55.10
2018-05-06T15:56:40.870Z,54.80
2018-05-06T15:59:08.450Z,54.90
2018-05-06T16:01:36.060Z,55.30
2018-05-06T16:04:16.312Z,54.80
2018-05-06T16:06:43.864Z,55.50
2018-05-06T16:09:11.439Z,55.40
2018-05-06T16:11:38.994Z,55.60
2018-05-06T16:14:06.544Z,55.00
2018-05-06T16:16:34.100Z,55.20
2018-05-06T16:19:01.652Z,55.80
2018-05-06T16:21:29.229Z,55.70
2018-05-06T16:23:57.552Z,55.00
2018-05-06T16:26:25.105Z,55.00
2018-05-06T16:28:52.661Z,55.80
2018-05-06T16:31:20.211Z,55.60
2018-05-06T16:33:47.792Z,55.90
2018-05-06T16:36:15.341Z,56.80
2018-05-06T16:38:42.900Z,56.60
2018-05-06T16:41:10.449Z,56.70
2018-05-06T16:43:38.003Z,56.60
2018-05-06T16:46:05.591Z,56.50
2018-05-06T16:48:33.913Z,56.70
2018-05-06T16:51:01.476Z,56.70
2018-05-06T16:53:29.032Z,57.00
2018-05-06T16:55:56.600Z,56.60
2018-05-06T16:58:24.168Z,56.50
2018-05-06T17:00:51.720Z,56.70
2018-05-06T17:03:19.276Z,56.40
2018-05-06T17:05:46.840Z,57.20
2018-05-06T17:08:14.401Z,57.30
2018-05-06T17:10:41.980Z,57.60
2018-05-06T17:13:10.299Z,57.50
2018-05-06T17:15:37.855Z,57.50
2018-05-06T17:18:05.404Z,57.80
2018-05-06T17:20:32.952Z,57.20
2018-05-06T17:23:00.631Z,57.70
2018-05-06T17:25:28.947Z,57.40
2018-05-06T17:27:56.505Z,57.30
2018-05-06T17:30:24.056Z,57.70
2018-05-06T17:32:51.615Z,57.80
2018-05-06T17:35:19.193Z,57.50
2018-05-06T17:37:46.755Z,57.80
2018-05-06T17:40:15.177Z,57.40
2018-05-06T17:42:42.783Z,57.30
2018-05-06T17:45:10.324Z,58.00
2018-05-06T17:47:37.895Z,58.50
2018-05-06T17:50:05.455Z,58.20
2018-05-06T17:52:33.010Z,58.60
2018-05-06T17:55:00.567Z,59.10
2018-05-06T17:57:28.122Z,59.20
2018-05-06T17:59:55.696Z,59.20
2018-05-06T18:02:24.017Z,59.40
2018-05-06T18:04:51.569Z,59.30
2018-05-06T18:07:19.116Z,59.60
2018-05-06T18:09:46.671Z,60.20
2018-05-06T18:12:14.255Z,61.20
2018-05-06T18:14:41.814Z,60.90
2018-05-06T18:17:09.364Z,61.20
2018-05-06T18:19:36.920Z,61.10
2018-05-06T18:22:04.480Z,61.80
2018-05-06T18:24:32.109Z,62.30
2018-05-06T18:26:59.638Z,62.00
2018-05-06T18:29:27.193Z,61.80
2018-05-06T18:31:54.740Z,62.90
2018-05-06T18:34:22.289Z,62.30
2018-05-06T18:36:49.875Z,63.20
2018-05-06T18:39:17.434Z,63.10
2018-05-06T18:41:44.989Z,63.20
2018-05-06T18:44:12.540Z,63.60
2018-05-06T18:46:40.158Z,63.50
2018-05-06T18:49:08.463Z,64.30
2018-05-06T18:51:36.024Z,64.20
2018-05-06T18:54:03.580Z,64.90
2018-05-06T18:56:31.137Z,65.50
2018-05-06T18:58:58.687Z,65.50
2018-05-06T19:01:26.256Z,65.70
2018-05-06T19:03:53.813Z,65.70
2018-05-06T19:06:21.364Z,66.00
2018-05-06T19:08:48.916Z,66.30
2018-05-06T19:11:16.464Z,66.80
2018-05-06T19:13:44.042Z,67.20
2018-05-06T19:16:11.592Z,67.40
2018-05-06T19:18:39.173Z,67.50
2018-05-06T19:21:06.724Z,67.80
2018-05-06T19:23:34.281Z,67.60
2018-05-06T19:26:01.864Z,67.90
2018-05-06T19:28:30.184Z,68.30
2018-05-06T19:30:57.742Z,68.30
2018-05-06T19:33:25.296Z,68.30
2018-05-06T19:35:52.854Z,68.20
2018-05-06T19:38:20.455Z,68.30
2018-05-06T19:40:48.020Z,68.30
2018-05-06T19:43:15.568Z,69.20
2018-05-06T19:45:43.120Z,69.20
2018-05-06T19:48:10.672Z,69.00
2018-05-06T19:50:38.252Z,68.80
2018-05-06T19:53:06.574Z,69.10
2018-05-06T19:55:34.124Z,70.10
2018-05-06T19:58:01.680Z,69.00
2018-05-06T20:00:29.231Z,69.70
2018-05-06T20:02:56.815Z,70.20
2018-05-06T20:05:24.372Z,69.80
2018-05-06T20:07:51.928Z,70.60
2018-05-06T20:10:19.484Z,70.00
2018-05-06T20:12:47.080Z,70.50
2018-05-06T20:15:15.409Z,70.50
2018-05-06T20:17:42.959Z,70.50
2018-05-06T20:20:10.508Z,70.50
2018-05-06T20:22:38.070Z,71.10
2018-05-06T20:25:05.641Z,70.80
2018-05-06T20:27:33.225Z,71.10
2018-05-06T20:30:00.782Z,71.70
2018-05-06T20:32:28.328Z,71.80
2018-05-06T20:34:55.883Z,71.80
2018-05-06T20:37:23.437Z,71.80
2018-05-06T20:39:51.018Z,71.70
2018-05-06T20:42:18.580Z,72.20
2018-05-06T20:44:46.137Z,72.00
2018-05-06T20:47:13.689Z,72.60
2018-05-06T20:49:41.248Z,72.60
2018-05-06T20:52:08.824Z,73.10
2018-05-06T20:54:36.380Z,73.40
2018-05-06T20:57:03.937Z,74.00
2018-05-06T20:59:31.488Z,74.10
2018-05-06T21:01:59.076Z,74.40
2018-05-06T21:04:26.637Z,74.30
2018-05-06T21:06:54.193Z,74.30
2018-05-06T21:09:21.745Z,74.40
2018-05-06T21:11:49.295Z,74.80
2018-05-06T21:14:16.847Z,74.50
2018-05-06T21:16:44.459Z,74.30
2018-05-06T21:19:12.065Z,74.40
2018-05-06T21:21:39.595Z,75.10
2018-05-06T21:24:07.144Z,75.00
2018-05-06T21:26:34.702Z,75.30
2018-05-06T21:29:02.285Z,75.00
2018-05-06T21:31:29.837Z,75.10
2018-05-06T21:33:57.390Z,75.20
2018-05-06T21:36:24.943Z,74.90
2018-05-06T21:38:52.496Z,74.80
2018-05-06T21:41:20.065Z,75.40
2018-05-06T21:43:48.385Z,76.00
2018-05-06T21:46:15.932Z,76.00
2018-05-06T21:48:43.487Z,76.20
2018-05-06T21:51:11.036Z,76.60
2018-05-06T21:53:38.612Z,76.50
2018-05-06T21:56:06.160Z,77.00
2018-05-06T21:58:33.713Z,77.00
2018-05-06T22:01:01.269Z,78.00
2018-05-06T22:03:28.820Z,76.80
2018-05-06T22:05:56.393Z,77.20
2018-05-06T22:08:23.939Z,77.40
2018-05-06T22:10:51.507Z,77.50
2018-05-06T22:13:19.839Z,77.30
2018-05-06T22:15:47.395Z,77.30
2018-05-06T22:18:14.972Z,77.40
2018-05-06T22:20:43.309Z,78.10
2018-05-06T22:23:10.868Z,78.00
2018-05-06T22:25:38.430Z,78.50
2018-05-06T22:28:05.986Z,78.40
2018-05-06T22:30:33.537Z,78.10
2018-05-06T22:33:01.100Z,78.30
2018-05-06T22:35:28.647Z,78.30
2018-05-06T22:37:56.200Z,78.30
2018-05-06T22:40:23.755Z,78.40
2018-05-06T22:42:52.068Z,78.60
2018-05-06T22:45:19.622Z,78.60
2018-05-06T22:47:47.200Z,78.30
2018-05-06T22:50:14.748Z,78.60
2018-05-06T22:52:42.301Z,78.50
2018-05-06T22:55:09.855Z,78.40
2018-05-06T22:57:37.428Z,79.00
2018-05-06T23:00:05.008Z,79.10
2018-05-06T23:02:32.563Z,78.70
2018-05-06T23:05:00.116Z,79.00
2018-05-06T23:07:27.664Z,79.40
2018-05-06T23:09:55.214Z,79.40
2018-05-06T23:12:22.784Z,79.10
2018-05-06T23:14:50.336Z,79.50
2018-05-06T23:17:17.887Z,79.70
2018-05-06T23:19:45.433Z,80.00
2018-05-06T23:22:13.043Z,79.90
2018-05-06T23:24:40.591Z,79.40
2018-05-06T23:27:08.146Z,78.90
2018-05-06T23:29:35.708Z,79.40
2018-05-06T23:32:03.263Z,79.30
2018-05-06T23:34:30.819Z,79.60
2018-05-06T23:36:58.391Z,80.20
2018-05-06T23:39:25.948Z,80.60
2018-05-06T23:41:53.500Z,80.20
2018-05-06T23:44:21.048Z,81.00
2018-05-06T23:46:48.608Z,81.40
2018-05-06T23:49:16.183Z,81.70
2018-05-06T23:51:44.513Z,80.10
2018-05-06T23:54:12.072Z,80.00
2018-05-06T23:56:39.624Z,80.20
2018-05-06T23:59:07.174Z,80.80
